createdAt,value
2023-01-22T00:00:04.871Z,3.97
2023-01-22T00:02:58.996Z,4.53
2023-01-22T00:05:25.450Z,3.80
2023-01-22T00:07:52.142Z,4.30
2023-01-22T00:10:18.585Z,5.87
2023-01-22T00:12:45.409Z,4.43
2023-01-22T00:15:11.629Z,4.77
2023-01-22T00:17:38.141Z,5.20
2023-01-22T00:20:06.075Z,4.60
2023-01-22T00:22:32.699Z,5.13
2023-01-22T00:24:58.999Z,4.50
2023-01-22T00:27:25.404Z,4.27
2023-01-22T00:29:51.531Z,4.50
2023-01-22T00:32:18.102Z,5.10
2023-01-22T00:34:49.952Z,5.57
2023-01-22T00:37:17.656Z,6.07
2023-01-22T00:39:44.056Z,5.00
2023-01-22T00:42:10.562Z,4.30
2023-01-22T00:44:36.733Z,4.93
2023-01-22T00:47:03.225Z,4.60
2023-01-22T00:49:29.437Z,4.53
2023-01-22T00:51:55.917Z,4.10
2023-01-22T00:54:24.693Z,4.43
2023-01-22T00:56:51.396Z,4.70
2023-01-22T00:59:17.610Z,4.70
2023-01-22T01:01:44.104Z,4.77
2023-01-22T01:04:10.318Z,5.17
2023-01-22T01:06:36.739Z,5.50
2023-01-22T01:09:04.593Z,4.60
2023-01-22T01:11:31.245Z,5.03
2023-01-22T01:13:57.377Z,4.83
2023-01-22T01:16:30.006Z,4.77
2023-01-22T01:19:09.342Z,5.00
2023-01-22T01:21:36.319Z,5.07
2023-01-22T01:24:03.103Z,5.10
2023-01-22T01:26:29.951Z,5.30
2023-01-22T01:28:56.243Z,3.87
2023-01-22T01:31:25.725Z,4.50
2023-01-22T01:33:52.383Z,4.63
2023-01-22T01:36:40.468Z,4.97
2023-01-22T01:39:10.280Z,4.37
2023-01-22T01:41:36.780Z,5.80
2023-01-22T01:44:10.757Z,5.27
2023-01-22T01:46:45.849Z,5.17
2023-01-22T01:49:37.979Z,5.17
2023-01-22T01:52:10.660Z,4.30
2023-01-22T01:54:39.634Z,4.20
2023-01-22T01:57:11.691Z,4.87
2023-01-22T01:59:38.539Z,5.33
2023-01-22T02:02:05.377Z,4.50
2023-01-22T02:04:31.523Z,5.20
2023-01-22T02:06:58.016Z,5.43
2023-01-22T02:09:26.318Z,4.67
2023-01-22T02:11:53.186Z,5.23
2023-01-22T02:14:29.140Z,4.67
2023-01-22T02:17:07.548Z,4.37
2023-01-22T02:19:33.845Z,4.00
2023-01-22T02:22:00.847Z,5.17
2023-01-22T02:24:30.237Z,4.23
2023-01-22T02:26:56.807Z,4.87
2023-01-22T02:29:25.808Z,5.83
2023-01-22T02:31:52.485Z,5.30
2023-01-22T02:34:23.697Z,4.70
2023-01-22T02:36:50.740Z,5.10
2023-01-22T02:39:16.996Z,5.07
2023-01-22T02:41:44.198Z,5.33
2023-01-22T02:44:11.875Z,5.80
2023-01-22T02:46:39.380Z,5.00
2023-01-22T02:49:05.745Z,5.00
2023-01-22T02:51:34.373Z,5.40
2023-01-22T02:54:00.884Z,4.90
2023-01-22T02:56:27.432Z,5.33
2023-01-22T02:58:53.714Z,5.20
2023-01-22T03:01:23.212Z,4.40
2023-01-22T03:04:12.086Z,5.43
2023-01-22T03:06:41.365Z,5.07
2023-01-22T03:09:08.961Z,5.00
2023-01-22T03:11:38.036Z,4.63
2023-01-22T03:14:26.767Z,5.80
2023-01-22T03:17:12.966Z,5.40
2023-01-22T03:19:57.897Z,5.53
2023-01-22T03:22:24.378Z,4.83
2023-01-22T03:24:51.882Z,5.67
2023-01-22T03:27:23.330Z,5.60
2023-01-22T03:29:49.484Z,5.57
2023-01-22T03:32:17.998Z,4.90
2023-01-22T03:34:44.281Z,5.33
2023-01-22T03:37:14.828Z,5.20
2023-01-22T03:39:43.847Z,5.43
2023-01-22T03:42:18.527Z,5.37
2023-01-22T03:44:44.905Z,5.40
2023-01-22T03:47:11.783Z,5.20
2023-01-22T03:49:38.008Z,5.50
2023-01-22T03:52:05.507Z,6.87
2023-01-22T03:54:31.744Z,5.37
2023-01-22T03:57:00.881Z,5.77
2023-01-22T03:59:30.615Z,4.80
2023-01-22T04:01:57.562Z,6.10
2023-01-22T04:04:23.807Z,5.37
2023-01-22T04:06:50.327Z,5.13
2023-01-22T04:09:16.537Z,5.73
2023-01-22T04:11:46.720Z,5.37
2023-01-22T04:14:14.670Z,4.90
2023-01-22T04:16:49.779Z,5.03
2023-01-22T04:19:34.608Z,5.27
2023-01-22T04:22:17.617Z,5.03
2023-01-22T04:24:45.201Z,4.80
2023-01-22T04:27:11.649Z,5.13
2023-01-22T04:29:37.860Z,4.53
2023-01-22T04:32:07.006Z,4.87
2023-01-22T04:34:50.647Z,5.10
2023-01-22T04:37:38.711Z,4.43
2023-01-22T04:40:05.445Z,4.20
2023-01-22T04:42:34.372Z,4.80
2023-01-22T04:45:00.754Z,4.17
2023-01-22T04:47:29.752Z,3.87
2023-01-22T04:49:55.937Z,4.43
2023-01-22T04:52:22.356Z,4.03
2023-01-22T04:54:51.137Z,5.13
2023-01-22T04:57:17.659Z,4.03
2023-01-22T04:59:43.790Z,4.43
2023-01-22T05:02:11.116Z,4.70
2023-01-22T05:04:37.937Z,3.97
2023-01-22T05:07:04.526Z,4.23
2023-01-22T05:09:30.711Z,4.90
2023-01-22T05:12:00.046Z,4.03
2023-01-22T05:14:30.090Z,4.63
2023-01-22T05:16:57.553Z,4.53
2023-01-22T05:19:23.783Z,4.40
2023-01-22T05:21:50.432Z,4.27
2023-01-22T05:24:17.906Z,4.00
2023-01-22T05:26:44.930Z,3.87
2023-01-22T05:29:18.923Z,4.80
2023-01-22T05:31:45.558Z,4.77
2023-01-22T05:34:33.138Z,4.47
2023-01-22T05:37:00.079Z,5.13
2023-01-22T05:39:28.206Z,4.83
2023-01-22T05:41:57.293Z,5.23
2023-01-22T05:44:25.432Z,4.80
2023-01-22T05:46:53.616Z,4.70
2023-01-22T05:49:19.915Z,5.27
2023-01-22T05:51:47.925Z,4.80
2023-01-22T05:54:14.285Z,4.33
2023-01-22T05:56:43.043Z,4.90
2023-01-22T05:59:11.015Z,4.87
2023-01-22T06:01:39.375Z,5.13
2023-01-22T06:04:06.019Z,5.80
2023-01-22T06:06:32.650Z,5.40
2023-01-22T06:08:59.066Z,5.87
2023-01-22T06:11:30.967Z,6.13
2023-01-22T06:13:57.325Z,5.03
2023-01-22T06:16:23.814Z,4.63
2023-01-22T06:18:59.001Z,6.03
2023-01-22T06:21:29.240Z,5.13
2023-01-22T06:23:55.825Z,4.90
2023-01-22T06:26:22.634Z,4.90
2023-01-22T06:28:48.867Z,5.83
2023-01-22T06:31:15.685Z,5.60
2023-01-22T06:33:42.098Z,5.63
2023-01-22T06:36:08.889Z,5.63
2023-01-22T06:38:36.596Z,5.63
2023-01-22T06:41:04.933Z,5.80
2023-01-22T06:43:32.595Z,5.40
2023-01-22T06:45:59.152Z,5.73
2023-01-22T06:48:51.457Z,5.00
2023-01-22T06:51:18.060Z,5.20
2023-01-22T06:53:45.708Z,5.90
2023-01-22T06:56:12.298Z,5.67
2023-01-22T06:58:39.383Z,4.50
2023-01-22T07:01:06.206Z,5.17
2023-01-22T07:03:32.541Z,5.47
2023-01-22T07:06:01.844Z,5.67
2023-01-22T07:08:32.077Z,5.37
2023-01-22T07:11:00.343Z,5.20
2023-01-22T07:13:26.956Z,5.47
2023-01-22T07:15:53.950Z,6.00
2023-01-22T07:18:23.058Z,6.87
2023-01-22T07:20:49.657Z,5.27
2023-01-22T07:23:15.945Z,6.17
2023-01-22T07:25:43.946Z,5.73
2023-01-22T07:28:12.051Z,8.87
2023-01-22T07:30:39.787Z,5.67
2023-01-22T07:33:05.914Z,7.03
2023-01-22T07:35:32.393Z,8.37
2023-01-22T07:37:59.694Z,5.47
2023-01-22T07:40:26.272Z,7.77
2023-01-22T07:42:52.825Z,8.50
2023-01-22T07:45:19.719Z,7.47
2023-01-22T07:47:56.319Z,8.50
2023-01-22T07:50:24.684Z,6.20
2023-01-22T07:52:51.061Z,8.23
2023-01-22T07:55:18.005Z,6.97
2023-01-22T07:57:44.434Z,7.13
2023-01-22T08:00:12.299Z,6.33
2023-01-22T08:02:42.053Z,6.37
2023-01-22T08:05:11.855Z,8.13
2023-01-22T08:07:38.052Z,10.50
2023-01-22T08:10:04.913Z,13.10
2023-01-22T08:12:31.064Z,10.10
2023-01-22T08:14:57.573Z,8.63
2023-01-22T08:17:23.709Z,7.50
2023-01-22T08:19:50.129Z,6.83
2023-01-22T08:22:16.491Z,6.43
2023-01-22T08:24:43.118Z,11.27
2023-01-22T08:27:09.288Z,13.33
2023-01-22T08:29:35.797Z,15.07
2023-01-22T08:32:02.481Z,30.73
2023-01-22T08:34:29.314Z,52.93
2023-01-22T08:36:55.492Z,23.47
2023-01-22T08:39:21.983Z,12.83
2023-01-22T08:41:48.206Z,17.13
2023-01-22T08:44:14.767Z,13.67
2023-01-22T08:46:41.157Z,13.83
2023-01-22T08:49:07.858Z,15.23
2023-01-22T08:51:34.756Z,12.80
2023-01-22T08:54:01.220Z,25.63
2023-01-22T08:56:27.603Z,18.17
2023-01-22T08:58:55.582Z,11.77
2023-01-22T09:01:21.802Z,13.07
2023-01-22T09:03:48.720Z,12.13
2023-01-22T09:06:15.027Z,10.90
2023-01-22T09:08:41.768Z,11.43
2023-01-22T09:11:08.212Z,9.07
2023-01-22T09:13:35.005Z,9.87
2023-01-22T09:16:01.260Z,9.90
2023-01-22T09:18:28.036Z,12.63
2023-01-22T09:20:54.366Z,11.80
2023-01-22T09:23:21.590Z,17.73
2023-01-22T09:25:48.145Z,40.47
2023-01-22T09:28:14.798Z,111.67
2023-01-22T09:30:42.094Z,22.40
2023-01-22T09:33:08.649Z,15.10
2023-01-22T09:35:34.822Z,11.13
2023-01-22T09:38:02.798Z,11.50
2023-01-22T09:40:48.009Z,11.17
2023-01-22T09:43:38.879Z,10.30
2023-01-22T09:46:12.139Z,10.13
2023-01-22T09:48:47.259Z,7.63
2023-01-22T09:51:17.157Z,9.47
2023-01-22T09:53:50.181Z,12.17
2023-01-22T09:56:22.965Z,11.90
2023-01-22T09:58:51.174Z,10.60
2023-01-22T10:01:19.330Z,10.00
2023-01-22T10:03:51.403Z,8.27
2023-01-22T10:06:22.948Z,10.10
2023-01-22T10:09:18.961Z,11.97
2023-01-22T10:11:49.387Z,9.50
2023-01-22T10:14:20.384Z,9.27
2023-01-22T10:16:48.346Z,11.47
2023-01-22T10:19:32.891Z,12.33
2023-01-22T10:22:10.394Z,12.53
2023-01-22T10:24:37.096Z,10.77
2023-01-22T10:27:13.201Z,16.17
2023-01-22T10:29:40.224Z,32.40
2023-01-22T10:32:23.605Z,24.13
2023-01-22T10:35:19.718Z,19.63
2023-01-22T10:37:47.360Z,21.97
2023-01-22T10:40:22.788Z,24.30
2023-01-22T10:43:02.215Z,20.93
2023-01-22T10:45:29.471Z,16.67
2023-01-22T10:48:11.472Z,14.63
2023-01-22T10:50:38.451Z,13.83
2023-01-22T10:53:17.044Z,15.37
2023-01-22T10:55:51.952Z,15.67
2023-01-22T10:58:20.657Z,14.57
2023-01-22T11:01:02.760Z,14.37
2023-01-22T11:03:38.186Z,13.40
2023-01-22T11:06:13.217Z,20.07
2023-01-22T11:09:04.877Z,14.23
2023-01-22T11:11:37.560Z,14.93
2023-01-22T11:14:12.863Z,14.10
2023-01-22T11:16:41.837Z,12.27
2023-01-22T11:19:32.393Z,14.27
2023-01-22T11:22:13.866Z,14.43
2023-01-22T11:24:52.212Z,14.73
2023-01-22T11:27:32.546Z,12.57
2023-01-22T11:30:30.269Z,12.83
2023-01-22T11:33:26.428Z,12.17
2023-01-22T11:36:10.391Z,11.03
2023-01-22T11:38:58.534Z,13.60
2023-01-22T11:41:54.716Z,12.57
2023-01-22T11:44:24.516Z,15.63
2023-01-22T11:47:06.172Z,14.53
2023-01-22T11:50:21.668Z,11.00
2023-01-22T11:52:52.077Z,11.40
2023-01-22T11:55:43.598Z,9.67
2023-01-22T11:58:18.676Z,9.03
2023-01-22T12:01:12.136Z,8.80
2023-01-22T12:03:57.517Z,8.67
2023-01-22T12:06:53.727Z,10.07
2023-01-22T12:09:28.591Z,9.80
2023-01-22T12:12:03.643Z,10.37
2023-01-22T12:14:54.611Z,9.00
2023-01-22T12:17:31.697Z,9.57
2023-01-22T12:20:21.442Z,10.43
2023-01-22T12:22:57.469Z,17.77
2023-01-22T12:25:35.957Z,13.20
2023-01-22T12:28:17.489Z,10.63
2023-01-22T12:31:10.331Z,8.63
2023-01-22T12:33:41.115Z,11.10
2023-01-22T12:36:16.056Z,9.13
2023-01-22T12:39:05.644Z,10.03
2023-01-22T12:41:41.838Z,9.53
2023-01-22T12:44:18.128Z,14.20
2023-01-22T12:46:56.276Z,14.40
2023-01-22T12:49:22.944Z,11.50
2023-01-22T12:51:51.053Z,10.37
2023-01-22T12:54:31.655Z,12.93
2023-01-22T12:57:22.247Z,14.27
2023-01-22T12:59:51.011Z,30.93
2023-01-22T13:02:27.629Z,10.70
2023-01-22T13:04:56.557Z,11.37
2023-01-22T13:07:28.844Z,11.07
2023-01-22T13:10:03.527Z,11.63
2023-01-22T13:12:46.398Z,10.30
2023-01-22T13:15:28.391Z,9.67
2023-01-22T13:18:07.313Z,9.53
2023-01-22T13:20:45.247Z,13.30
2023-01-22T13:23:14.169Z,11.53
2023-01-22T13:25:42.196Z,10.47
2023-01-22T13:28:18.713Z,8.57
2023-01-22T13:30:55.730Z,10.83
2023-01-22T13:33:22.681Z,12.30
2023-01-22T13:35:49.198Z,12.80
2023-01-22T13:38:28.552Z,16.33
2023-01-22T13:41:05.007Z,18.47
2023-01-22T13:43:34.300Z,15.13
2023-01-22T13:46:00.855Z,13.57
2023-01-22T13:48:27.515Z,12.97
2023-01-22T13:51:01.748Z,14.20
2023-01-22T13:53:31.235Z,15.90
2023-01-22T13:56:01.995Z,14.03
2023-01-22T13:58:48.379Z,18.63
2023-01-22T14:01:30.318Z,17.13
2023-01-22T14:04:06.637Z,17.93
2023-01-22T14:06:51.309Z,20.97
2023-01-22T14:09:35.654Z,20.47
2023-01-22T14:12:14.639Z,20.63
2023-01-22T14:14:42.903Z,20.93
2023-01-22T14:17:39.331Z,16.87
2023-01-22T14:20:06.250Z,14.37
2023-01-22T14:22:32.921Z,17.77
2023-01-22T14:24:59.124Z,16.00
2023-01-22T14:27:28.792Z,15.57
2023-01-22T14:29:55.113Z,14.20
2023-01-22T14:32:23.017Z,16.40
2023-01-22T14:34:49.230Z,20.33
2023-01-22T14:37:16.925Z,22.93
2023-01-22T14:39:43.139Z,17.90
2023-01-22T14:42:09.573Z,18.00
2023-01-22T14:44:35.796Z,17.90
2023-01-22T14:47:03.453Z,16.20
2023-01-22T14:49:29.980Z,20.33
2023-01-22T14:51:56.587Z,29.10
2023-01-22T14:54:24.307Z,17.40
2023-01-22T14:56:50.870Z,18.77
2023-01-22T14:59:17.263Z,18.70
2023-01-22T15:01:44.280Z,16.77
2023-01-22T15:04:10.715Z,17.00
2023-01-22T15:06:37.288Z,15.27
2023-01-22T15:09:03.790Z,15.20
2023-01-22T15:11:31.331Z,17.33
2023-01-22T15:13:57.694Z,15.33
2023-01-22T15:16:24.310Z,16.53
2023-01-22T15:18:54.484Z,15.70
2023-01-22T15:21:21.108Z,15.63
2023-01-22T15:23:47.311Z,13.63
2023-01-22T15:26:31.901Z,14.37
2023-01-22T15:28:58.168Z,14.47
2023-01-22T15:31:24.678Z,12.97
2023-01-22T15:33:50.968Z,14.93
2023-01-22T15:36:18.234Z,13.50
2023-01-22T15:38:44.776Z,14.63
2023-01-22T15:41:20.852Z,13.40
2023-01-22T15:43:50.150Z,12.90
2023-01-22T15:46:19.463Z,13.10
2023-01-22T15:48:46.191Z,14.83
2023-01-22T15:51:14.650Z,12.07
2023-01-22T15:53:46.616Z,13.23
2023-01-22T15:56:13.592Z,13.47
2023-01-22T15:58:40.175Z,13.83
2023-01-22T16:01:06.747Z,11.80
2023-01-22T16:03:33.063Z,10.97
2023-01-22T16:06:09.582Z,11.70
2023-01-22T16:08:35.903Z,11.37
2023-01-22T16:11:03.338Z,11.13
2023-01-22T16:13:29.611Z,11.47
2023-01-22T16:15:57.977Z,10.90
2023-01-22T16:18:24.797Z,12.17
2023-01-22T16:20:51.707Z,11.57
2023-01-22T16:23:18.245Z,11.27
2023-01-22T16:25:45.330Z,11.53
2023-01-22T16:28:11.647Z,10.77
2023-01-22T16:30:38.497Z,11.87
2023-01-22T16:33:18.122Z,11.20
2023-01-22T16:35:45.092Z,10.77
2023-01-22T16:38:11.526Z,11.80
2023-01-22T16:40:38.570Z,12.07
2023-01-22T16:43:06.675Z,9.83
2023-01-22T16:45:34.830Z,14.53
2023-01-22T16:48:01.309Z,13.03
2023-01-22T16:50:28.125Z,11.57
2023-01-22T16:52:54.610Z,11.27
2023-01-22T16:55:21.481Z,10.90
2023-01-22T16:57:47.957Z,10.93
2023-01-22T17:00:15.070Z,10.73
2023-01-22T17:02:41.532Z,8.87
2023-01-22T17:05:12.302Z,13.40
2023-01-22T17:07:40.131Z,10.60
2023-01-22T17:10:08.876Z,10.50
2023-01-22T17:12:35.363Z,10.50
2023-01-22T17:15:02.089Z,11.07
2023-01-22T17:17:28.791Z,11.90
2023-01-22T17:19:55.601Z,10.70
2023-01-22T17:22:23.475Z,11.77
2023-01-22T17:24:51.854Z,10.73
2023-01-22T17:27:19.623Z,11.17
2023-01-22T17:29:46.536Z,9.60
2023-01-22T17:32:13.223Z,10.60
2023-01-22T17:34:41.182Z,9.40
2023-01-22T17:37:10.473Z,11.17
2023-01-22T17:39:38.182Z,13.13
2023-01-22T17:42:05.788Z,10.70
2023-01-22T17:44:36.500Z,9.40
2023-01-22T17:47:05.166Z,10.37
2023-01-22T17:49:32.788Z,10.17
2023-01-22T17:51:59.271Z,11.47
2023-01-22T17:54:28.621Z,8.97
2023-01-22T17:56:56.218Z,13.30
2023-01-22T17:59:23.848Z,10.67
2023-01-22T18:01:50.550Z,11.67
2023-01-22T18:04:17.829Z,11.30
2023-01-22T18:06:44.549Z,11.57
2023-01-22T18:09:11.799Z,9.73
2023-01-22T18:11:38.981Z,13.47
2023-01-22T18:14:15.171Z,12.17
2023-01-22T18:16:42.975Z,14.00
2023-01-22T18:19:10.221Z,16.07
2023-01-22T18:21:37.915Z,16.50
2023-01-22T18:24:09.721Z,13.70
2023-01-22T18:26:36.905Z,16.10
2023-01-22T18:29:05.786Z,14.47
2023-01-22T18:31:32.818Z,18.07
2023-01-22T18:34:01.741Z,18.23
2023-01-22T18:36:33.517Z,15.77
2023-01-22T18:39:02.587Z,11.50
2023-01-22T18:41:30.048Z,14.23
2023-01-22T18:43:58.926Z,13.97
2023-01-22T18:46:28.450Z,14.60
2023-01-22T18:49:08.083Z,13.17
2023-01-22T18:51:34.654Z,12.07
2023-01-22T18:54:04.486Z,13.40
2023-01-22T18:56:31.314Z,11.10
2023-01-22T18:59:00.155Z,12.83
2023-01-22T19:01:29.990Z,12.30
2023-01-22T19:03:59.899Z,13.03
2023-01-22T19:06:29.838Z,10.80
2023-01-22T19:08:57.043Z,10.53
2023-01-22T19:11:24.300Z,10.57
2023-01-22T19:13:52.790Z,10.90
2023-01-22T19:16:19.391Z,11.37
2023-01-22T19:18:54.125Z,10.60
2023-01-22T19:21:21.636Z,12.43
2023-01-22T19:23:51.124Z,13.60
2023-01-22T19:26:23.161Z,15.97
2023-01-22T19:28:52.924Z,17.33
2023-01-22T19:31:26.535Z,20.53
2023-01-22T19:33:55.003Z,18.07
2023-01-22T19:36:24.787Z,15.87
2023-01-22T19:38:52.221Z,14.73
2023-01-22T19:41:18.814Z,13.73
2023-01-22T19:43:45.573Z,12.50
2023-01-22T19:46:13.200Z,16.50
2023-01-22T19:48:40.167Z,23.27
2023-01-22T19:51:10.824Z,13.03
2023-01-22T19:53:38.511Z,12.37
2023-01-22T19:56:21.536Z,12.10
2023-01-22T19:58:49.357Z,12.87
2023-01-22T20:01:16.900Z,11.83
2023-01-22T20:03:47.267Z,13.17
2023-01-22T20:06:14.903Z,12.20
2023-01-22T20:08:45.209Z,13.47
2023-01-22T20:11:12.998Z,11.47
2023-01-22T20:13:42.300Z,12.00
2023-01-22T20:16:35.212Z,11.63
2023-01-22T20:19:03.500Z,12.47
2023-01-22T20:21:30.260Z,11.47
2023-01-22T20:23:57.464Z,11.20
2023-01-22T20:26:23.913Z,11.53
2023-01-22T20:28:51.653Z,12.53
2023-01-22T20:31:22.604Z,13.43
2023-01-22T20:33:54.037Z,13.50
2023-01-22T20:36:22.974Z,11.27
2023-01-22T20:38:52.960Z,12.03
2023-01-22T20:41:21.236Z,13.70
2023-01-22T20:43:48.330Z,15.40
2023-01-22T20:46:18.556Z,13.50
2023-01-22T20:48:45.828Z,13.33
2023-01-22T20:51:15.626Z,12.10
2023-01-22T20:53:43.935Z,11.43
2023-01-22T20:56:22.623Z,12.07
2023-01-22T20:58:56.810Z,12.40
2023-01-22T21:01:23.921Z,12.67
2023-01-22T21:03:51.230Z,12.53
2023-01-22T21:06:19.949Z,12.00
2023-01-22T21:08:50.569Z,13.30
2023-01-22T21:11:19.898Z,12.63
2023-01-22T21:13:48.209Z,13.30
2023-01-22T21:16:17.241Z,14.17
2023-01-22T21:18:45.903Z,17.30
2023-01-22T21:21:17.642Z,17.53
2023-01-22T21:23:46.823Z,13.67
2023-01-22T21:26:15.551Z,13.00
2023-01-22T21:28:42.457Z,15.00
2023-01-22T21:31:13.830Z,13.60
2023-01-22T21:33:40.886Z,14.23
2023-01-22T21:36:11.728Z,15.20
2023-01-22T21:38:39.046Z,13.23
2023-01-22T21:41:06.378Z,11.90
2023-01-22T21:43:52.065Z,13.40
2023-01-22T21:46:21.147Z,13.60
2023-01-22T21:48:48.616Z,13.67
2023-01-22T21:51:15.066Z,13.23
2023-01-22T21:53:41.561Z,11.87
2023-01-22T21:56:07.740Z,11.97
2023-01-22T21:58:34.186Z,12.63
2023-01-22T22:01:07.241Z,12.57
2023-01-22T22:03:34.983Z,12.23
2023-01-22T22:06:02.680Z,13.20
2023-01-22T22:08:29.323Z,12.40
2023-01-22T22:10:56.755Z,13.37
2023-01-22T22:13:23.543Z,11.53
2023-01-22T22:15:49.944Z,14.73
2023-01-22T22:18:16.438Z,15.73
2023-01-22T22:20:43.086Z,14.23
2023-01-22T22:23:09.706Z,14.20
2023-01-22T22:25:35.953Z,13.87
2023-01-22T22:28:02.533Z,12.87
2023-01-22T22:30:28.778Z,13.97
2023-01-22T22:32:55.216Z,13.43
2023-01-22T22:35:21.542Z,15.97
2023-01-22T22:37:48.039Z,17.33
2023-01-22T22:40:14.283Z,15.40
2023-01-22T22:42:43.304Z,15.17
2023-01-22T22:45:09.694Z,14.03
2023-01-22T22:47:36.143Z,12.53
2023-01-22T22:50:04.013Z,13.07
2023-01-22T22:52:32.990Z,14.87
2023-01-22T22:54:59.159Z,12.87
2023-01-22T22:57:25.777Z,14.03
2023-01-22T22:59:51.974Z,15.00
2023-01-22T23:02:19.739Z,15.20
2023-01-22T23:04:46.118Z,13.33
2023-01-22T23:07:12.642Z,15.00
2023-01-22T23:09:38.801Z,14.47
2023-01-22T23:12:05.343Z,13.23
2023-01-22T23:14:31.584Z,13.43
2023-01-22T23:16:58.182Z,15.20
2023-01-22T23:19:26.226Z,13.90
2023-01-22T23:21:58.551Z,12.97
2023-01-22T23:24:25.659Z,15.73
2023-01-22T23:26:52.230Z,14.50
2023-01-22T23:29:23.546Z,14.23
2023-01-22T23:31:51.022Z,14.10
2023-01-22T23:34:19.934Z,16.00
2023-01-22T23:36:47.785Z,15.43
2023-01-22T23:39:16.976Z,15.13
2023-01-22T23:41:44.117Z,14.00
2023-01-22T23:44:11.084Z,13.87
2023-01-22T23:46:38.057Z,14.23
2023-01-22T23:49:04.455Z,14.23
2023-01-22T23:51:31.498Z,13.57
2023-01-22T23:53:58.142Z,13.80
2023-01-22T23:56:29.412Z,14.37
2023-01-22T23:58:55.767Z,13.17
